Terminal Aerodrome Forecast
Issued by NWS

Home | Current Version | Previous Version | Text Only | Print | Product List | Glossary On
Versions: 1 2 3 4 5 6 7 8 9 10 11 12 13 14 15 16 17 18 19 20 21 22
613
FTUS41 KCAR 052325
TAFBHB
TAF
KBHB 052325Z 0600/0624 36016G24KT 2SM -SN BLSN OVC013
     FM060100 34016G24KT 6SM BLSN BKN020
     FM060400 33015G22KT P6SM SCT250
     FM060800 31010KT P6SM FEW250
     FM062100 21009KT P6SM SCT040
      AMD LTD TO CLD VIS AND WIND=

USA.gov is the U.S. government's official web portal to all federal, state and local government web resources and services.